地図

経路データ

SID SEASON NUMBER BASIN SUBBASIN NAME ISO_TIME NATURE LAT LON WMO_WIND WMO_PRES WMO_AGENCY TRACK_TYPE DIST2LAND LANDFALL IFLAG USA_AGENCY USA_ATCF_ID USA_LAT USA_LON USA_RECORD USA_STATUS USA_WIND USA_PRES USA_SSHS USA_R34_NE USA_R34_SE USA_R34_SW USA_R34_NW USA_R50_NE USA_R50_SE USA_R50_SW USA_R50_NW USA_R64_NE USA_R64_SE USA_R64_SW USA_R64_NW USA_POCI USA_ROCI USA_RMW USA_EYE TOKYO_LAT TOKYO_LON TOKYO_GRADE TOKYO_WIND TOKYO_PRES TOKYO_R50_DIR TOKYO_R50_LONG TOKYO_R50_SHORT TOKYO_R30_DIR TOKYO_R30_LONG TOKYO_R30_SHORT TOKYO_LAND CMA_LAT CMA_LON CMA_CAT CMA_WIND CMA_PRES HKO_LAT HKO_LON HKO_CAT HKO_WIND HKO_PRES NEWDELHI_LAT NEWDELHI_LON NEWDELHI_GRADE NEWDELHI_WIND NEWDELHI_PRES NEWDELHI_CI NEWDELHI_DP NEWDELHI_POCI REUNION_LAT REUNION_LON REUNION_TYPE REUNION_WIND REUNION_PRES REUNION_TNUM REUNION_CI REUNION_RMW REUNION_R34_NE REUNION_R34_SE REUNION_R34_SW REUNION_R34_NW REUNION_R50_NE REUNION_R50_SE REUNION_R50_SW REUNION_R50_NW REUNION_R64_NE REUNION_R64_SE REUNION_R64_SW REUNION_R64_NW BOM_LAT BOM_LON BOM_TYPE BOM_WIND BOM_PRES BOM_TNUM BOM_CI BOM_RMW BOM_R34_NE BOM_R34_SE BOM_R34_SW BOM_R34_NW BOM_R50_NE BOM_R50_SE BOM_R50_SW BOM_R50_NW BOM_R64_NE BOM_R64_SE BOM_R64_SW BOM_R64_NW BOM_ROCI BOM_POCI BOM_EYE BOM_POS_METHOD BOM_PRES_METHOD NADI_LAT NADI_LON NADI_CAT NADI_WIND NADI_PRES WELLINGTON_LAT WELLINGTON_LON WELLINGTON_WIND WELLINGTON_PRES DS824_LAT DS824_LON DS824_STAGE DS824_WIND DS824_PRES TD9636_LAT TD9636_LON TD9636_STAGE TD9636_WIND TD9636_PRES TD9635_LAT TD9635_LON TD9635_WIND TD9635_PRES TD9635_ROCI NEUMANN_LAT NEUMANN_LON NEUMANN_CLASS NEUMANN_WIND NEUMANN_PRES MLC_LAT MLC_LON MLC_CLASS MLC_WIND MLC_PRES USA_GUST BOM_GUST BOM_GUST_PER REUNION_GUST REUNION_GUST_PER USA_SEAHGT USA_SEARAD_NE USA_SEARAD_SE USA_SEARAD_SW USA_SEARAD_NW STORM_SPEED STORM_DIR
1928081S15109 1928 23 SI WA NOT_NAMED 1928-03-21 06:00:00 NR -15.1000 108.700 main 802 802 _____O________ -1 -15.1000 108.700 99 9.90000 1 0
1928081S15109 1928 23 SI WA NOT_NAMED 1928-03-21 09:00:00 NR -15.0779 108.678 main 802 802 _____P________ -1 -15.0779 108.678 99 1 304
1928081S15109 1928 23 SI WA NOT_NAMED 1928-03-21 12:00:00 NR -15.0686 108.651 main 802 802 _____P________ -1 -15.0686 108.651 99 1 263
1928081S15109 1928 23 SI WA NOT_NAMED 1928-03-21 15:00:00 NR -15.0849 108.613 main 805 805 _____P________ -1 -15.0849 108.613 99 1 231
1928081S15109 1928 23 SI WA NOT_NAMED 1928-03-21 18:00:00 NR -15.1397 108.561 main 805 805 _____P________ -1 -15.1397 108.561 99 2 217
1928081S15109 1928 23 SI WA NOT_NAMED 1928-03-21 21:00:00 NR -15.2458 108.489 main 819 819 _____P________ -1 -15.2458 108.489 99 3 211
1928081S15109 1928 23 SI WA NOT_NAMED 1928-03-22 00:00:00 NR -15.4160 108.392 main 844 844 _____P________ -1 -15.4160 108.392 99 5 207
1928081S15109 1928 23 SI WA NOT_NAMED 1928-03-22 03:00:00 NR -15.6631 108.264 main 879 879 _____P________ -1 -15.6631 108.264 99 7 206
1928081S15109 1928 23 SI WA NOT_NAMED 1928-03-22 06:00:00 NR -16.0000 108.100 main 905 888 _____O________ -1 -16.0000 108.100 99 9.90000 9 204
1928081S15109 1928 23 SI WA NOT_NAMED 1928-03-22 09:00:00 NR -16.4342 107.899 main 888 864 _____P________ -1 -16.4342 107.899 99 10 203
1928081S15109 1928 23 SI WA NOT_NAMED 1928-03-22 12:00:00 NR -16.9525 107.675 main 858 839 _____P________ -1 -16.9525 107.675 99 12 201
1928081S15109 1928 23 SI WA NOT_NAMED 1928-03-22 15:00:00 NR -17.5365 107.446 main 848 818 _____P________ -1 -17.5365 107.446 99 13 199
1928081S15109 1928 23 SI WA NOT_NAMED 1928-03-22 18:00:00 NR -18.1677 107.232 main 821 798 _____P________ -1 -18.1677 107.232 99 14 196
1928081S15109 1928 23 SI WA NOT_NAMED 1928-03-22 21:00:00 NR -18.8278 107.050 main 798 776 _____P________ -1 -18.8278 107.050 99 14 192
1928081S15109 1928 23 SI WA NOT_NAMED 1928-03-23 00:00:00 NR -19.4987 106.921 main 776 747 _____P________ -1 -19.4987 106.921 99 14 188
1928081S15109 1928 23 SI WA NOT_NAMED 1928-03-23 03:00:00 NR -20.1621 106.864 main 743 720 _____P________ -1 -20.1621 106.864 99 13 181
1928081S15109 1928 23 SI WA NOT_NAMED 1928-03-23 06:00:00 NR -20.8000 106.900 main 720 683 _____O________ -1 -20.8000 106.900 99 9.90000 13 169
1928081S15109 1928 23 SI WA NOT_NAMED 1928-03-23 09:00:00 NR -21.4001 107.133 main 683 641 _____P________ -1 -21.4001 107.133 99 13 156
1928081S15109 1928 23 SI WA NOT_NAMED 1928-03-23 12:00:00 NR -21.9913 107.465 main 630 595 _____P________ -1 -21.9913 107.465 99 14 149
1928081S15109 1928 23 SI WA NOT_NAMED 1928-03-23 15:00:00 NR -22.5635 107.872 main 584 537 _____P________ -1 -22.5635 107.872 99 14 144
1928081S15109 1928 23 SI WA NOT_NAMED 1928-03-23 18:00:00 NR -23.1068 108.328 main 537 475 _____P________ -1 -23.1068 108.328 99 14 141
1928081S15109 1928 23 SI WA NOT_NAMED 1928-03-23 21:00:00 NR -23.6114 108.806 main 475 417 _____P________ -1 -23.6114 108.806 99 13 138
1928081S15109 1928 23 SI WA NOT_NAMED 1928-03-24 00:00:00 NR -24.0678 109.279 main 416 374 _____P________ -1 -24.0678 109.279 99 12 136
1928081S15109 1928 23 SI WA NOT_NAMED 1928-03-24 03:00:00 NR -24.4670 109.720 main 374 336 _____P________ -1 -24.4670 109.720 99 10 134
1928081S15109 1928 23 SI WA NOT_NAMED 1928-03-24 06:00:00 NR -24.8000 110.100 main 336 310 _____O________ -1 -24.8000 110.100 99 9.90000 9 134
1928081S15109 1928 23 SI WA NOT_NAMED 1928-03-24 09:00:00 NR -25.0614 110.398 main 308 286 _____P________ -1 -25.0614 110.398 99 7 134
1928081S15109 1928 23 SI WA NOT_NAMED 1928-03-24 12:00:00 NR -25.2579 110.617 main 284 262 _____P________ -1 -25.2579 110.617 99 5 135
1928081S15109 1928 23 SI WA NOT_NAMED 1928-03-24 15:00:00 NR -25.3990 110.768 main 262 249 _____P________ -1 -25.3990 110.768 99 3 136
1928081S15109 1928 23 SI WA NOT_NAMED 1928-03-24 18:00:00 NR -25.4941 110.863 main 249 246 _____P________ -1 -25.4941 110.863 99 2 140
1928081S15109 1928 23 SI WA NOT_NAMED 1928-03-24 21:00:00 NR -25.5526 110.912 main 246 246 _____P________ -1 -25.5526 110.912 99 1 149
1928081S15109 1928 23 SI WA NOT_NAMED 1928-03-25 00:00:00 NR -25.5837 110.927 main 246 246 _____P________ -1 -25.5837 110.927 99 0 0
1928081S15109 1928 23 SI WA NOT_NAMED 1928-03-25 03:00:00 NR -25.5964 110.919 main 246 246 _____P________ -1 -25.5964 110.919 99 0 0
1928081S15109 1928 23 SI WA NOT_NAMED 1928-03-25 06:00:00 NR -25.6000 110.900 main 246 _____O________ -1 -25.6000 110.900 99 9.90000 0 0

IBTrACS Databaseについて

本データベースは、米国NOAAが公開する1842年以降の世界の熱帯低気圧のベストトラックデータアーカイブInternational Best Track Archive for Climate Stewardship (IBTrACS)を、ウェブで閲覧しやすい形式に変換したものです。

最終更新日:2021-12-03